San Juan, PR

7:55 AM AST on June 03, 2015 (GMT -0400)
Luis Munoz Marin International | | Change Station
CLOSE
Current Station
Airport
Location: San Juan,
Elevation: 7 ft
Nearby Weather Stations

Elev 7 ft 18.43 °N, 66.01 °W | Updated 59 minutes ago

Mostly Cloudy
Mostly Cloudy
78 °F
Feels Like 78 °F
N
4
Wind Variable Wind from SSE

Today
High -- | Low -- °F
--% Chance of Precip.
Yesterday
High -- | Low -- °F
Precip. -- in
5:47 AM 6:58 PM
Full, 99% visible
Pressure 29.99 in
Visibility 10.0 miles
Clouds Few 2200 ft
Scattered Clouds 3100 ft
Mostly Cloudy 6500 ft
Dew Point 76 °F
Humidity 93%
Rainfall 0.07 in
Snow Depth Not available.
UV 0 out of 12
Pollen Not available.
Air Quality Not available.
Flu Activity Local Activity
METAR TJSJ 031056Z 15003KT 10SM FEW022 SCT031 BKN065 26/24 A2999 RMK AO2 RAE0957B14E48 SLP155 VCSH NW-N P0007 T02560244

More Conditions Fewer Conditions

Pressure 29.99 in
Visibility 10.0 miles
Clouds Few 2200 ft
Scattered Clouds 3100 ft
Mostly Cloudy 6500 ft
Dew Point 76 °F
Humidity 93%
Rainfall 0.07 in
Snow Depth Not available.
UV 0 out of 12
Pollen Not available.
Air Quality Not available.
Flu Activity Local Activity
METAR TJSJ 031056Z 15003KT 10SM FEW022 SCT031 BKN065 26/24 A2999 RMK AO2 RAE0957B14E48 SLP155 VCSH NW-N P0007 T02560244

More Conditions Fewer Conditions

10-Day Weather Forecast

×

Almanac

Astronomy

Jun. 03, 2015 Rise Set
Actual Time
Civil Twilight
Nautical Twilight
Astronomical Twilight
Moon
Length of Visible Light
Length of Day
Tomorrow will be .
, % of the Moon is Illuminated

Today's Extremes

State Highs State Lows

Community

WunderPhotos

Upload Photos

1,826,205 photos uploaded!

WunderBlogs® & News

Nearby

Air Quality

  Air Quality AQ Index Pollutant
Not available.

Snow Depth

Station Depth Elevation

Earthquake Activity

City Distance Mag. Time & Date
Minimum magnitude displayed is 2.5.

Coastal Water Temperatures

Place Temperature

Stations

Nearby Weather Stations

Station Location Temp. Windchill Dew Point Humidity Wind Precip. Elev Updated Type